Delrose, Texas
Current Conditions -  °F | °C
As of 5:35 AM on Friday 19 Dec 2014 (Local Time) from KOSA Reporting Station
Overcast Overcast  
Wind Chill: 41°   Ceiling: 300
Heat Index: 45°   Visibility: 4mi
Dew Point: 45°   Wind: 8mph
Humidity: 99%   Direction: 30°NNE
Pressure: 30.15"   Gusts: NA
Location:  32.7353°N, 94.9492°W
Report Text: KOSA 191135Z AUTO 03007KT 4SM OVC003 07/07 A3015 RMK AO1 T00730071
Loading
Personal Weather Stations






























Interactive Weather Map New forecast layout! Learn more

10-Day Weather Forecast

Advertisements
Track Severe Weather on mobile